Time;durP1;ratioP1;P1;durP2;ratioP2;P2;SDS_P1;SDS_P2;PMS_P1;PMS_P2;Temp;Humidity;BMP_temperature;BMP_pressure;BME280_temperature;BME280_humidity;BME280_pressure;Samples;Min_cycle;Max_cycle;Signal;HPM_P1;HPM_P2
2022/01/11 13:45:17;;;;;;;9.50;3.45;;;;;;;2.93;66.94;97393.91;5110219;27;20369;-65
2022/01/11 13:47:42;;;;;;;8.30;3.35;;;;;;;3.02;66.18;97397.34;5110003;28;20040;-66
2022/01/11 13:50:09;;;;;;;8.15;3.08;;;;;;;2.93;67.13;97400.88;5108714;28;20556;-66
2022/01/11 13:52:34;;;;;;;8.32;3.00;;;;;;;2.68;66.22;97400.78;5110274;28;20062;-66
2022/01/11 13:55:01;;;;;;;11.32;3.45;;;;;;;2.41;67.63;97408.78;5090063;28;20504;-66
2022/01/11 13:57:31;;;;;;;8.65;3.25;;;;;;;2.43;66.95;97406.88;5090587;28;20113;-65
2022/01/11 13:59:59;;;;;;;7.72;2.95;;;;;;;2.33;67.26;97405.19;5108358;22;20052;-66
2022/01/11 14:02:28;;;;;;;8.18;3.08;;;;;;;2.42;67.81;97405.22;5088947;28;20048;-66
2022/01/11 14:04:57;;;;;;;7.93;2.92;;;;;;;2.62;67.21;97401.44;5089024;28;20292;-66
2022/01/11 14:07:27;;;;;;;11.80;3.67;;;;;;;2.60;66.42;97403.38;5089167;28;20040;-66
2022/01/11 14:09:54;;;;;;;9.98;3.88;;;;;;;2.64;66.14;97409.91;5088855;28;20068;-66
2022/01/11 14:12:25;;;;;;;11.05;4.05;;;;;;;2.49;67.42;97412.25;5089339;28;20101;-67
2022/01/11 14:14:58;;;;;;;9.60;2.97;;;;;;;2.56;67.04;97413.25;5089312;28;20054;-66
2022/01/11 14:17:27;;;;;;;9.90;3.47;;;;;;;2.43;67.40;97418.06;5088739;28;20515;-66
2022/01/11 14:19:58;;;;;;;10.32;3.65;;;;;;;2.46;66.91;97412.56;5087378;28;20515;-67
2022/01/11 14:22:37;;;;;;;10.95;3.55;;;;;;;2.39;67.17;97415.94;5089035;28;20067;-66
2022/01/11 14:25:04;;;;;;;8.85;3.50;;;;;;;2.42;67.78;97415.59;5088073;28;20072;-67
2022/01/11 14:27:32;;;;;;;7.87;2.73;;;;;;;2.41;67.21;97424.38;5088694;28;20123;-66
2022/01/11 14:30:00;;;;;;;9.35;3.17;;;;;;;2.37;67.68;97423.88;5088365;28;20269;-66
2022/01/11 14:32:31;;;;;;;8.60;3.13;;;;;;;2.50;68.17;97423.47;5088227;28;20115;-66
2022/01/11 14:35:02;;;;;;;7.82;3.05;;;;;;;2.39;68.27;97423.72;5087966;28;20044;-67
2022/01/11 14:37:30;;;;;;;10.10;3.58;;;;;;;2.35;67.80;97416.22;5088940;28;20052;-67
2022/01/11 14:39:57;;;;;;;10.40;3.70;;;;;;;2.43;68.61;97422.47;5087866;28;20119;-67
2022/01/11 14:42:27;;;;;;;9.57;3.58;;;;;;;2.36;68.16;97411.84;5087926;28;20419;-67
2022/01/11 14:45:10;;;;;;;8.75;3.30;;;;;;;2.29;68.75;97424.63;5087674;28;20438;-66
2022/01/11 14:47:43;;;;;;;8.95;3.00;;;;;;;2.26;68.32;97429.31;5088042;28;20131;-65
2022/01/11 14:50:10;;;;;;;10.32;3.60;;;;;;;2.29;69.11;97429.84;5087856;28;20044;-66
2022/01/11 14:52:53;;;;;;;8.73;3.30;;;;;;;2.39;69.52;97431.53;5087691;28;20500;-67
2022/01/11 14:55:19;;;;;;;8.30;3.33;;;;;;;2.35;69.29;97434.41;5081423;28;20048;-66
2022/01/11 14:57:47;;;;;;;7.75;3.17;;;;;;;2.21;68.92;97427.22;5072954;28;20515;-66
2022/01/11 15:00:23;;;;;;;;;;;;;;;2.23;69.07;97434.84;5074718;28;20458;-66
2022/01/11 15:02:50;;;;;;;8.70;3.28;;;;;;;2.09;68.81;97437.00;5074015;28;20054;-66
2022/01/11 15:05:21;;;;;;;8.30;2.92;;;;;;;2.18;69.17;97445.66;5073511;28;20063;-66
2022/01/11 15:07:46;;;;;;;9.80;3.15;;;;;;;2.10;68.97;97430.06;5074006;28;20053;-67
2022/01/11 15:10:21;;;;;;;9.02;3.85;;;;;;;2.21;70.68;97440.19;5073023;28;20109;-66
2022/01/11 15:12:47;;;;;;;8.57;3.42;;;;;;;2.07;69.76;97440.72;5072030;28;20081;-67
2022/01/11 15:15:12;;;;;;;10.43;3.50;;;;;;;2.16;69.78;97442.44;5073220;28;20041;-66
2022/01/11 15:17:38;;;;;;;9.05;3.20;;;;;;;2.15;69.84;97443.38;5073291;28;20090;-66
2022/01/11 15:20:06;;;;;;;7.90;2.90;;;;;;;2.23;69.58;97443.44;5073369;28;20044;-66
2022/01/11 15:22:33;;;;;;;9.73;3.63;;;;;;;2.15;69.07;97451.16;5073436;28;20043;-66
2022/01/11 15:25:00;;;;;;;8.68;3.45;;;;;;;2.07;69.62;97448.50;5072886;28;20036;-66
2022/01/11 15:27:26;;;;;;;10.00;3.88;;;;;;;1.99;69.68;97451.88;5073686;28;20045;-66
2022/01/11 15:29:51;;;;;;;11.30;3.63;;;;;;;2.11;70.95;97444.66;5071583;28;20412;-65
2022/01/11 15:32:17;;;;;;;9.02;3.97;;;;;;;1.98;70.37;97454.59;5076551;28;20068;-66
2022/01/11 15:34:43;;;;;;;10.32;3.72;;;;;;;2.02;70.25;97455.94;5075662;28;20036;-66
2022/01/11 15:37:12;;;;;;;10.18;3.65;;;;;;;1.96;70.34;97456.53;5073245;28;20056;-66
2022/01/11 15:39:37;;;;;;;8.50;3.10;;;;;;;1.96;70.62;97461.75;5073680;28;20044;-66
2022/01/11 15:42:04;;;;;;;11.32;3.65;;;;;;;1.84;70.85;97464.56;5073466;28;20047;-66
2022/01/11 15:44:32;;;;;;;11.13;3.47;;;;;;;1.76;70.93;97461.09;5072872;28;20044;-66
2022/01/11 15:46:57;;;;;;;10.95;3.38;;;;;;;1.86;71.26;97479.16;5073456;28;20094;-65
2022/01/11 15:49:23;;;;;;;10.07;3.63;;;;;;;1.76;70.72;97480.06;5071900;28;20044;-65
2022/01/11 15:51:50;;;;;;;7.60;3.10;;;;;;;1.71;70.42;97484.88;5072504;28;20067;-66
2022/01/11 15:54:17;;;;;;;8.27;3.47;;;;;;;1.66;70.22;97481.91;5072585;28;20044;-67
2022/01/11 15:56:43;;;;;;;9.80;3.65;;;;;;;1.69;70.15;97486.81;5071406;28;20060;-65
2022/01/11 15:59:09;;;;;;;9.55;3.60;;;;;;;1.70;71.43;97485.84;5072466;28;20074;-66
2022/01/11 16:01:35;;;;;;;8.43;3.50;;;;;;;1.58;69.87;97485.25;5072262;28;20040;-69
2022/01/11 16:04:01;;;;;;;9.32;3.90;;;;;;;1.49;69.63;97486.13;5071773;28;20036;-77
2022/01/11 16:06:29;;;;;;;9.63;3.92;;;;;;;1.47;69.41;97482.88;5073900;28;20032;-76
2022/01/11 16:08:55;;;;;;;10.32;3.78;;;;;;;1.55;69.20;97479.53;5072576;28;20124;-73
2022/01/11 16:11:22;;;;;;;10.35;4.00;;;;;;;1.44;70.09;97474.56;5072210;28;20116;-72
2022/01/11 16:13:48;;;;;;;10.48;4.00;;;;;;;1.48;70.51;97476.72;5069409;28;20102;-72
2022/01/11 16:16:13;;;;;;;9.40;3.38;;;;;;;1.50;70.12;97476.56;5071576;28;20041;-72
2022/01/11 16:18:39;;;;;;;9.20;3.67;;;;;;;1.49;69.61;97482.72;5072680;28;20453;-72
2022/01/11 16:21:05;;;;;;;8.80;3.28;;;;;;;1.45;69.78;97479.59;5072330;28;20154;-73
2022/01/11 16:23:30;;;;;;;10.75;4.00;;;;;;;1.55;69.99;97474.34;5072392;28;20044;-72
2022/01/11 16:25:57;;;;;;;13.00;5.15;;;;;;;1.49;70.28;97467.97;5073383;28;20040;-80
2022/01/11 16:28:28;;;;;;;11.02;4.07;;;;;;;1.54;70.44;97477.91;5077100;28;20048;-74
2022/01/11 16:30:54;;;;;;;9.23;3.72;;;;;;;1.50;70.94;97466.19;5070024;28;20041;-72
2022/01/11 16:33:20;;;;;;;10.52;3.88;;;;;;;1.53;71.35;97469.31;5072157;28;20051;-71
2022/01/11 16:35:49;;;;;;;10.00;4.15;;;;;;;1.50;72.09;97473.97;5071886;28;20450;-72
2022/01/11 16:38:16;;;;;;;10.60;4.13;;;;;;;1.53;71.95;97474.50;5072402;28;20526;-73
2022/01/11 16:43:11;;;;;;;9.88;3.95;;;;;;;1.38;72.83;97472.56;5072245;28;20037;-72
2022/01/11 16:45:44;;;;;;;10.75;4.13;;;;;;;1.36;71.89;97469.31;5072007;28;20036;-73
2022/01/11 16:48:10;;;;;;;9.88;3.95;;;;;;;1.46;70.51;97477.84;5072309;28;20124;-72
2022/01/11 16:50:36;;;;;;;9.48;4.20;;;;;;;1.48;70.85;97483.69;5072259;28;20044;-72
2022/01/11 16:53:05;;;;;;;11.02;3.80;;;;;;;1.43;71.15;97496.28;5071050;28;20039;-72
2022/01/11 16:55:31;;;;;;;10.00;4.25;;;;;;;1.36;72.31;97490.88;5071569;28;20054;-72
2022/01/11 16:57:56;;;;;;;10.43;4.30;;;;;;;1.44;73.04;97497.91;5071970;28;20120;-73
2022/01/11 17:00:22;;;;;;;11.57;4.40;;;;;;;1.51;73.42;97489.41;5072074;28;20163;-73
2022/01/11 17:02:51;;;;;;;12.13;5.28;;;;;;;1.33;72.07;97490.34;5072164;28;20456;-73
2022/01/11 17:05:17;;;;;;;9.07;4.28;;;;;;;1.27;71.32;97492.56;5071742;28;20037;-73
2022/01/11 17:07:44;;;;;;;10.63;4.70;;;;;;;1.20;71.38;97490.69;5072336;28;20511;-72
2022/01/11 17:10:11;;;;;;;11.40;4.05;;;;;;;1.19;71.43;97489.88;5071677;28;20050;-72
2022/01/11 17:12:37;;;;;;;11.37;4.27;;;;;;;1.21;71.97;97487.94;5072078;28;20041;-73
2022/01/11 17:15:07;;;;;;;10.63;4.25;;;;;;;1.24;71.45;97492.84;5071269;28;20066;-73
2022/01/11 17:17:34;;;;;;;9.25;4.50;;;;;;;1.15;71.55;97488.53;5070618;28;20040;-73
2022/01/11 17:20:03;;;;;;;10.40;4.55;;;;;;;1.19;71.51;97500.25;5071898;28;20041;-73
2022/01/11 17:22:28;;;;;;;11.60;4.85;;;;;;;1.26;72.31;97505.66;5070093;28;20496;-73
2022/01/11 17:24:59;;;;;;;10.70;4.75;;;;;;;1.27;71.67;97510.69;5072155;28;20294;-73
2022/01/11 17:27:27;;;;;;;11.90;5.18;;;;;;;1.30;73.13;97500.06;5072521;28;20045;-74
2022/01/11 17:29:53;;;;;;;12.25;4.90;;;;;;;1.31;72.52;97508.63;5087432;28;20549;-72
2022/01/11 17:32:19;;;;;;;11.43;4.47;;;;;;;1.35;72.08;97516.94;5071522;28;20044;-73
2022/01/11 17:34:45;;;;;;;9.93;4.47;;;;;;;1.36;72.38;97505.63;5071372;28;20045;-73
2022/01/11 17:37:12;;;;;;;10.65;4.68;;;;;;;1.41;72.84;97518.94;5086695;28;20152;-73
2022/01/11 17:39:42;;;;;;;11.77;5.13;;;;;;;1.44;72.30;97510.88;5071917;28;20044;-73
2022/01/11 17:42:08;;;;;;;11.32;4.72;;;;;;;1.49;72.50;97521.63;5071391;28;20467;-74
2022/01/11 17:44:34;;;;;;;13.23;5.22;;;;;;;1.38;72.68;97524.41;5069893;28;20139;-73
2022/01/11 17:47:02;;;;;;;11.98;5.03;;;;;;;1.46;72.68;97525.34;5071555;28;20051;-73
2022/01/11 17:49:29;;;;;;;11.60;5.15;;;;;;;1.46;72.67;97525.34;5070947;28;20048;-73
2022/01/11 17:51:55;;;;;;;10.38;4.53;;;;;;;1.38;72.65;97527.00;5070141;28;20267;-72
2022/01/11 17:54:22;;;;;;;10.50;4.82;;;;;;;1.40;72.75;97536.28;5074446;28;20052;-73
2022/01/11 17:56:48;;;;;;;11.82;4.70;;;;;;;1.34;73.32;97530.84;5071055;28;20041;-73
2022/01/11 17:59:14;;;;;;;11.55;5.32;;;;;;;1.31;73.15;97530.19;5069737;28;20046;-73
2022/01/11 18:01:42;;;;;;;11.18;4.70;;;;;;;1.40;72.54;97545.81;5071439;28;20162;-72
2022/01/11 18:04:08;;;;;;;10.10;4.88;;;;;;;1.37;73.12;97538.34;5071272;28;20531;-73
2022/01/11 18:06:34;;;;;;;10.50;4.32;;;;;;;1.36;73.25;97549.69;5071139;28;20048;-72
2022/01/11 18:08:59;;;;;;;13.57;5.40;;;;;;;1.32;73.59;97541.38;5071042;28;20094;-72
2022/01/11 18:11:29;;;;;;;10.82;4.70;;;;;;;1.29;73.47;97547.69;5071443;28;20064;-72
2022/01/11 18:13:57;;;;;;;11.57;4.40;;;;;;;1.34;73.20;97561.94;5071475;28;20543;-72
2022/01/11 18:16:24;;;;;;;;;;;;;;;1.28;73.00;97558.97;5071658;28;20040;-72
2022/01/11 18:18:50;;;;;;;10.73;4.20;;;;;;;1.18;72.45;97565.97;5071282;28;19963;-73
2022/01/11 18:21:17;;;;;;;10.68;4.82;;;;;;;1.16;72.46;97567.09;5071100;28;20071;-72
2022/01/11 18:23:43;;;;;;;11.43;4.70;;;;;;;1.26;73.42;97568.69;5071701;28;20060;-73
2022/01/11 18:26:08;;;;;;;10.98;4.93;;;;;;;1.24;73.98;97570.63;5070078;28;20522;-73
2022/01/11 18:28:35;;;;;;;11.30;5.13;;;;;;;1.19;73.85;97567.63;5071745;28;20056;-73
2022/01/11 18:31:03;;;;;;;11.07;4.63;;;;;;;1.13;73.23;97565.63;5073788;28;20071;-73
2022/01/11 18:33:31;;;;;;;9.90;4.63;;;;;;;1.22;73.81;97563.94;5075167;28;20123;-72
2022/01/11 18:35:57;;;;;;;11.43;4.65;;;;;;;1.16;74.07;97564.50;5075782;28;20523;-73
2022/01/11 18:38:25;;;;;;;11.05;5.13;;;;;;;1.20;74.26;97555.50;5077064;28;20082;-72
2022/01/11 18:40:50;;;;;;;;;;;;;;;1.00;73.66;97562.53;5076291;28;20511;-72
2022/01/11 18:43:16;;;;;;;10.52;4.30;;;;;;;1.09;73.59;97573.81;5075449;28;19974;-72
2022/01/11 18:45:44;;;;;;;10.43;4.53;;;;;;;1.07;74.03;97565.34;5074846;28;20063;-72
2022/01/11 18:48:10;;;;;;;;;;;;;;;1.09;74.18;97572.03;5075580;28;20032;-72
2022/01/11 18:50:37;;;;;;;10.88;4.63;;;;;;;1.08;74.78;97569.56;5074878;28;20409;-72
2022/01/11 18:53:02;;;;;;;11.85;5.15;;;;;;;0.95;74.40;97569.91;5074650;28;20074;-72
2022/01/11 18:55:31;;;;;;;10.40;4.90;;;;;;;1.01;74.22;97571.91;5074591;28;20389;-72
2022/01/11 18:57:57;;;;;;;11.07;4.60;;;;;;;0.93;74.88;97571.84;5075820;28;20113;-71
2022/01/11 19:00:25;;;;;;;13.05;5.40;;;;;;;0.98;75.01;97577.41;5081460;28;20048;-72
2022/01/11 19:02:52;;;;;;;11.60;5.22;;;;;;;0.98;75.43;97574.81;5076837;28;20063;-72
2022/01/11 19:05:19;;;;;;;10.57;4.75;;;;;;;1.00;74.55;97584.06;5075006;28;20516;-72
2022/01/11 19:07:45;;;;;;;12.95;5.72;;;;;;;0.95;74.82;97575.91;5074739;28;20052;-72
2022/01/11 19:10:12;;;;;;;11.07;4.88;;;;;;;0.99;75.62;97574.66;5073189;28;20040;-72
2022/01/11 19:12:38;;;;;;;11.52;5.22;;;;;;;0.97;75.23;97570.56;5074619;28;20098;-72
2022/01/11 19:15:05;;;;;;;11.90;5.35;;;;;;;0.86;74.96;97565.56;5074095;28;20496;-72
2022/01/11 19:17:31;;;;;;;11.98;5.43;;;;;;;0.87;75.75;97575.81;5074622;28;20048;-73
2022/01/11 19:19:59;;;;;;;16.08;5.65;;;;;;;0.91;76.34;97568.53;5074400;28;20045;-72
2022/01/11 19:22:25;;;;;;;12.77;6.15;;;;;;;0.76;76.56;97586.34;5089801;28;20071;-72
2022/01/11 19:24:57;;;;;;;12.15;5.32;;;;;;;0.75;75.96;97582.09;5073780;28;20046;-72
2022/01/11 19:27:24;;;;;;;12.32;5.30;;;;;;;0.74;75.00;97585.63;5074433;28;20059;-72
2022/01/11 19:29:53;;;;;;;11.73;4.78;;;;;;;0.65;73.97;97587.31;5090045;28;20135;-73
2022/01/11 19:32:19;;;;;;;12.65;5.63;;;;;;;0.66;75.04;97586.34;5074342;28;20040;-73
2022/01/11 19:34:49;;;;;;;13.45;5.88;;;;;;;0.51;76.28;97582.56;5073798;28;20443;-72
2022/01/11 19:37:19;;;;;;;11.52;4.57;;;;;;;0.56;74.13;97576.97;5073948;28;20076;-72
2022/01/11 19:39:50;;;;;;;11.23;4.97;;;;;;;0.53;74.80;97589.22;5073874;28;20104;-72
2022/01/11 19:42:17;;;;;;;13.27;5.28;;;;;;;0.53;75.06;97581.44;5074015;28;20127;-72
2022/01/11 19:44:42;;;;;;;12.15;5.38;;;;;;;0.47;75.75;97589.78;5073567;28;20376;-72
2022/01/11 19:47:08;;;;;;;13.43;5.78;;;;;;;0.31;76.48;97586.13;5074207;28;20518;-73
2022/01/11 19:49:34;;;;;;;11.65;5.68;;;;;;;0.17;76.53;97583.00;5072175;28;20097;-73
2022/01/11 19:52:01;;;;;;;12.93;6.13;;;;;;;0.13;77.36;97586.00;5074199;28;20515;-72
2022/01/11 19:54:28;;;;;;;12.07;5.32;;;;;;;0.10;76.69;97594.03;5074043;28;20045;-72
2022/01/11 19:56:55;;;;;;;11.30;5.05;;;;;;;0.01;77.34;97590.50;5073642;28;20094;-72
2022/01/11 19:59:20;;;;;;;10.65;4.63;;;;;;;-0.04;77.42;97597.84;5093507;22;20060;-72
2022/01/11 20:01:46;;;;;;;11.68;5.13;;;;;;;-0.11;78.32;97605.31;5073254;28;20140;-71
2022/01/11 20:04:13;;;;;;;14.05;6.18;;;;;;;-0.09;77.91;97597.44;5074043;28;20075;-71
2022/01/11 20:06:39;;;;;;;12.88;6.22;;;;;;;-0.09;78.36;97607.78;5074439;28;20040;-72
2022/01/11 20:09:04;;;;;;;12.90;5.80;;;;;;;-0.18;78.98;97603.41;5074225;28;20044;-71
2022/01/11 20:11:32;;;;;;;12.38;6.45;;;;;;;-0.22;78.64;97602.03;5074208;28;20119;-72
2022/01/11 20:13:57;;;;;;;12.85;6.15;;;;;;;-0.31;78.95;97596.72;5074792;28;20040;-71
2022/01/11 20:16:23;;;;;;;12.82;6.07;;;;;;;-0.36;79.61;97598.88;5075812;28;20118;-72
2022/01/11 20:18:52;;;;;;;12.73;6.32;;;;;;;-0.31;79.19;97604.47;5075664;28;20094;-73
2022/01/11 20:21:21;;;;;;;13.38;5.75;;;;;;;-0.31;79.25;97591.53;5076905;28;20044;-73
2022/01/11 20:29:17;;;;;;;11.50;5.63;;;;;;;-0.46;80.09;97592.88;5073672;28;20178;-71
2022/01/11 20:31:42;;;;;;;13.68;6.35;;;;;;;-0.43;80.06;97596.94;5073676;28;20045;-73
2022/01/11 20:34:08;;;;;;;13.13;5.63;;;;;;;-0.45;80.93;97604.84;5073720;28;20060;-72
2022/01/11 20:36:34;;;;;;;14.20;6.45;;;;;;;-0.51;80.62;97604.56;5073414;28;20119;-71
2022/01/11 20:39:00;;;;;;;11.73;5.65;;;;;;;-0.53;80.89;97604.69;5073323;28;20086;-71
2022/01/11 20:41:25;;;;;;;15.95;7.10;;;;;;;-0.59;81.98;97615.56;5071852;28;20411;-72
2022/01/11 20:43:54;;;;;;;13.95;6.38;;;;;;;-0.63;81.49;97617.59;5073125;28;20036;-72
2022/01/11 20:46:20;;;;;;;13.85;7.07;;;;;;;-0.70;82.39;97618.22;5072976;28;20037;-73
2022/01/11 20:48:46;;;;;;;14.73;6.72;;;;;;;-0.71;82.08;97611.41;5071892;28;20075;-72
2022/01/11 20:51:21;;;;;;;13.07;5.75;;;;;;;-0.74;81.94;97628.00;5071921;28;20443;-73
2022/01/11 20:53:47;;;;;;;13.90;6.63;;;;;;;-0.73;82.01;97632.22;5071902;28;20496;-72
2022/01/11 20:56:15;;;;;;;13.32;6.90;;;;;;;-0.74;81.84;97630.59;5072969;28;20032;-73
2022/01/11 20:58:42;;;;;;;13.02;5.82;;;;;;;-0.70;81.98;97625.97;5072535;28;20045;-72
2022/01/11 21:01:12;;;;;;;13.20;6.20;;;;;;;-0.77;82.19;97632.63;5071080;28;20048;-72
2022/01/11 21:03:38;;;;;;;17.50;7.18;;;;;;;-0.83;82.55;97621.84;5072862;28;20487;-72
2022/01/11 21:06:04;;;;;;;12.95;6.05;;;;;;;-0.82;83.04;97633.00;5072698;28;20036;-72
2022/01/11 21:08:32;;;;;;;13.15;6.05;;;;;;;-0.87;83.09;97633.38;5073027;28;20120;-72
2022/01/11 21:11:00;;;;;;;15.90;6.50;;;;;;;-0.88;83.33;97634.34;5072894;28;20460;-72
2022/01/11 21:13:30;;;;;;;14.10;6.70;;;;;;;-0.85;83.42;97633.28;5073109;28;20500;-72
2022/01/11 21:21:07;;;;;;;16.35;6.68;;;;;;;-0.95;84.08;97635.00;5072510;28;20554;-71
2022/01/11 21:23:36;;;;;;;14.48;6.53;;;;;;;-0.97;83.78;97647.19;5071967;28;20040;-70
2022/01/11 21:26:05;;;;;;;14.85;6.03;;;;;;;-0.98;84.72;97638.63;5078356;28;20508;-71
2022/01/11 21:28:32;;;;;;;14.63;7.30;;;;;;;-1.02;84.80;97641.59;5086246;28;20060;-71
2022/01/11 21:30:57;;;;;;;14.88;6.40;;;;;;;-1.03;85.02;97638.19;5082809;28;20041;-71
2022/01/11 21:33:25;;;;;;;16.48;6.65;;;;;;;-1.06;84.82;97638.47;5072255;28;20059;-72
2022/01/11 21:35:52;;;;;;;14.45;7.47;;;;;;;-1.08;85.15;97646.34;5072424;28;20499;-72
2022/01/11 21:38:18;;;;;;;14.77;6.55;;;;;;;-1.11;85.52;97649.19;5071969;28;20446;-72
2022/01/11 21:40:46;;;;;;;15.82;6.90;;;;;;;-1.08;85.25;97645.50;5074840;28;20040;-71
2022/01/11 21:43:12;;;;;;;16.63;7.63;;;;;;;-1.09;85.14;97654.19;5076383;28;20377;-72
2022/01/11 21:45:40;;;;;;;17.17;7.47;;;;;;;-1.10;85.25;97653.38;5076064;28;20063;-71
2022/01/11 21:48:08;;;;;;;;;;;;;;;-1.13;85.44;97652.81;5071665;28;20416;-70
2022/01/11 21:50:37;;;;;;;15.35;6.53;;;;;;;-1.13;85.38;97655.41;5072303;28;20332;-72
2022/01/11 21:53:03;;;;;;;16.88;7.68;;;;;;;-1.15;86.29;97659.88;5072172;28;20041;-70
2022/01/11 21:55:31;;;;;;;15.88;6.55;;;;;;;-1.16;86.08;97666.81;5072423;28;20427;-71
2022/01/11 21:58:02;;;;;;;;;;;;;;;-1.14;86.22;97662.31;5072412;28;20115;-71
2022/01/11 22:00:31;;;;;;;13.27;6.30;;;;;;;-1.14;85.94;97671.84;5070420;28;19928;-72
2022/01/11 22:02:57;;;;;;;14.93;6.28;;;;;;;-1.14;86.23;97670.06;5072390;28;20115;-72
2022/01/11 22:05:22;;;;;;;16.30;7.32;;;;;;;-1.20;86.52;97672.34;5071686;28;20127;-71
2022/01/11 22:07:49;;;;;;;15.57;7.45;;;;;;;-1.23;87.03;97670.03;5079210;28;20040;-71
2022/01/11 22:10:21;;;;;;;16.42;7.32;;;;;;;-1.24;86.96;97678.69;5077771;28;20043;-72
2022/01/11 22:12:47;;;;;;;17.83;8.73;;;;;;;-1.32;87.65;97677.56;5080175;28;20070;-71
2022/01/11 22:17:40;;;;;;;15.48;6.95;;;;;;;-1.37;88.19;97682.28;5087289;28;20048;-69
2022/01/11 22:20:09;;;;;;;18.35;8.40;;;;;;;-1.41;88.39;97678.31;5083828;28;20044;-72
2022/01/11 22:22:37;;;;;;;17.55;8.15;;;;;;;-1.43;89.00;97682.78;5081626;28;20504;-72
2022/01/11 22:25:06;;;;;;;15.70;7.70;;;;;;;-1.43;89.00;97669.88;5078208;28;20137;-72
2022/01/11 22:27:32;;;;;;;17.88;8.02;;;;;;;-1.45;88.69;97676.13;5079052;28;20040;-72
2022/01/11 22:29:58;;;;;;;19.05;8.60;;;;;;;-1.48;89.18;97677.19;5075496;28;20064;-70
2022/01/11 22:32:23;;;;;;;18.33;7.78;;;;;;;-1.45;88.99;97679.53;5075150;28;20070;-70
2022/01/11 22:34:51;;;;;;;17.20;7.45;;;;;;;-1.45;89.04;97682.09;5073864;28;20452;-70
2022/01/11 22:37:17;;;;;;;20.67;9.20;;;;;;;-1.51;88.91;97664.50;5073911;28;20040;-70
2022/01/11 22:39:46;;;;;;;21.10;8.13;;;;;;;-1.52;89.45;97678.38;5075145;28;20147;-71
2022/01/11 22:42:16;;;;;;;17.33;8.38;;;;;;;-1.58;89.25;97676.28;5075518;28;20512;-71
2022/01/11 22:44:45;;;;;;;17.35;7.60;;;;;;;-1.52;89.47;97667.22;5074928;28;20090;-71
2022/01/11 22:47:14;;;;;;;20.00;8.98;;;;;;;-1.57;89.91;97670.19;5075419;28;20043;-71
2022/01/11 22:49:42;;;;;;;17.55;8.35;;;;;;;-1.50;89.62;97673.91;5074813;28;20462;-71
2022/01/11 22:52:13;;;;;;;20.48;8.65;;;;;;;-1.58;90.25;97671.94;5075485;28;20052;-71
2022/01/11 22:54:39;;;;;;;17.40;8.45;;;;;;;-1.58;90.33;97671.13;5073766;28;20504;-70
2022/01/11 22:57:07;;;;;;;17.90;7.78;;;;;;;-1.60;90.34;97667.88;5073691;28;20040;-71
2022/01/11 22:59:35;;;;;;;18.52;7.93;;;;;;;-1.65;90.77;97664.81;5075275;28;20090;-70
2022/01/11 23:02:00;;;;;;;19.42;8.55;;;;;;;-1.69;91.31;97671.16;5076992;28;20044;-71
2022/01/11 23:04:26;;;;;;;20.20;9.43;;;;;;;-1.67;91.19;97670.13;5084137;28;20071;-71
2022/01/11 23:06:52;;;;;;;16.15;8.05;;;;;;;-1.71;90.81;97671.31;5089460;28;20040;-72
2022/01/11 23:09:18;;;;;;;17.17;7.90;;;;;;;-1.72;91.24;97658.50;5084707;28;20055;-71
2022/01/11 23:11:55;;;;;;;20.02;9.07;;;;;;;-1.69;90.76;97668.59;5078165;28;20053;-71
2022/01/11 23:17:10;;;;;;;17.00;7.65;;;;;;;-1.82;91.46;97657.63;5076260;28;20178;-71
2022/01/11 23:19:39;;;;;;;16.98;8.23;;;;;;;-1.80;91.61;97666.06;5075631;28;20036;-70
2022/01/11 23:22:06;;;;;;;17.88;8.50;;;;;;;-1.79;91.91;97668.50;5075244;28;20048;-71
2022/01/11 23:24:32;;;;;;;17.75;7.72;;;;;;;-1.71;91.10;97675.66;5074929;28;20060;-70
2022/01/11 23:27:00;;;;;;;20.80;10.45;;;;;;;-1.72;91.58;97681.72;5073017;28;20033;-69
2022/01/11 23:29:32;;;;;;;18.90;7.80;;;;;;;-1.71;91.31;97675.66;5074617;28;20136;-70
2022/01/11 23:31:58;;;;;;;19.35;8.63;;;;;;;-1.71;91.37;97678.22;5074824;28;20071;-71
2022/01/11 23:34:25;;;;;;;21.92;9.20;;;;;;;-1.74;91.35;97676.69;5075127;28;20040;-71
2022/01/11 23:36:53;;;;;;;16.90;8.02;;;;;;;-1.77;91.39;97673.56;5074829;28;20040;-71
2022/01/11 23:47:34;;;;;;;17.55;8.32;;;;;;;-1.94;92.78;97664.56;5083017;28;20094;-70
2022/01/11 23:50:01;;;;;;;21.60;9.82;;;;;;;-1.91;92.93;97662.56;5074245;28;20068;-70
2022/01/11 23:52:27;;;;;;;16.05;8.65;;;;;;;-1.86;92.34;97657.88;5074513;28;20124;-69
2022/01/11 23:54:53;;;;;;;18.20;8.75;;;;;;;-1.90;91.62;97648.72;5072284;28;20127;-70
2022/01/11 23:57:18;;;;;;;21.35;9.32;;;;;;;-1.91;92.29;97654.84;5073759;28;20040;-69
2022/01/11 23:59:46;;;;;;;21.48;8.40;;;;;;;-1.95;92.67;97648.28;5073402;28;20519;-70
